Terminal Aerodrome Forecast
Issued by NWS

Home | Current Version | Previous Version | Text Only | Print | Product List | Glossary On
Versions: 1 2 3 4 5 6 7 8 9 10 11 12 13 14 15 16 17 18 19 20 21 22 23 24 25 26
000
FTUS43 KGLD 030535
TAFMCK
TAF
KMCK 030535Z 0306/0406 12009KT P6SM OVC015
     FM030900 VRB05KT 6SM BR OVC020
     FM031200 31012KT P6SM BKN035
     FM031500 35024G36KT P6SM OVC020
     FM031900 36017G25KT P6SM BKN035
     FM040000 02012KT P6SM BKN100
     FM040300 36008KT P6SM VCSH OVC035=

USA.gov is the U.S. government's official web portal to all federal, state and local government web resources and services.